sensor_id;sensor_type;location;lat;lon;timestamp;pressure;altitude;pressure_sealevel;temperature;humidity
40155;BME280;25875;48.202;16.334;2023-08-07T00:01:45;98263.56;;;14.07;63.38
40155;BME280;25875;48.202;16.334;2023-08-07T00:04:13;98230.75;;;14.06;62.88
40155;BME280;25875;48.202;16.334;2023-08-07T00:06:40;98225.56;;;14.05;62.67
40155;BME280;25875;48.202;16.334;2023-08-07T00:09:07;98115.06;;;13.38;62.67
40155;BME280;25875;48.202;16.334;2023-08-07T00:11:34;98234.84;;;14.10;63.28
40155;BME280;25875;48.202;16.334;2023-08-07T00:14:01;98249.13;;;14.09;62.67
40155;BME280;25875;48.202;16.334;2023-08-07T00:16:28;98229.63;;;14.09;62.51
40155;BME280;25875;48.202;16.334;2023-08-07T00:18:55;98236.78;;;14.08;62.83
40155;BME280;25875;48.202;16.334;2023-08-07T00:21:24;98234.97;;;14.09;62.43
40155;BME280;25875;48.202;16.334;2023-08-07T00:23:51;98254.59;;;14.08;62.98
40155;BME280;25875;48.202;16.334;2023-08-07T00:26:18;98251.94;;;14.08;62.31
40155;BME280;25875;48.202;16.334;2023-08-07T00:28:45;98259.47;;;14.03;62.68
40155;BME280;25875;48.202;16.334;2023-08-07T00:31:12;98275.47;;;14.03;62.49
40155;BME280;25875;48.202;16.334;2023-08-07T00:33:39;98266.50;;;14.04;62.34
40155;BME280;25875;48.202;16.334;2023-08-07T00:36:07;98251.63;;;14.01;62.77
40155;BME280;25875;48.202;16.334;2023-08-07T00:38:35;98157.16;;;13.44;62.54
40155;BME280;25875;48.202;16.334;2023-08-07T00:41:02;98265.25;;;14.08;62.86
40155;BME280;25875;48.202;16.334;2023-08-07T00:43:32;98255.53;;;13.97;62.80
40155;BME280;25875;48.202;16.334;2023-08-07T00:45:59;98274.47;;;14.04;62.91
40155;BME280;25875;48.202;16.334;2023-08-07T00:48:26;98275.72;;;14.00;62.34
40155;BME280;25875;48.202;16.334;2023-08-07T00:50:53;98275.59;;;14.01;62.86
40155;BME280;25875;48.202;16.334;2023-08-07T00:53:20;98268.31;;;14.03;62.79
40155;BME280;25875;48.202;16.334;2023-08-07T00:55:49;98281.06;;;14.00;62.78
40155;BME280;25875;48.202;16.334;2023-08-07T00:58:16;98273.78;;;14.02;62.70
40155;BME280;25875;48.202;16.334;2023-08-07T01:00:44;98177.09;;;13.39;62.51
40155;BME280;25875;48.202;16.334;2023-08-07T01:03:12;98291.44;;;14.03;62.75
40155;BME280;25875;48.202;16.334;2023-08-07T01:05:39;98261.28;;;14.02;62.79
40155;BME280;25875;48.202;16.334;2023-08-07T01:08:07;98288.91;;;14.01;62.59
40155;BME280;25875;48.202;16.334;2023-08-07T01:13:29;98283.72;;;14.00;62.09
40155;BME280;25875;48.202;16.334;2023-08-07T01:16:03;98227.81;;;13.58;62.37
40155;BME280;25875;48.202;16.334;2023-08-07T01:18:34;98245.22;;;13.62;62.12
40155;BME280;25875;48.202;16.334;2023-08-07T01:21:02;98301.66;;;13.98;62.12
40155;BME280;25875;48.202;16.334;2023-08-07T01:23:31;98299.81;;;13.98;62.31
40155;BME280;25875;48.202;16.334;2023-08-07T01:25:58;98296.31;;;13.98;61.80
40155;BME280;25875;48.202;16.334;2023-08-07T01:28:27;98293.66;;;13.98;62.09
40155;BME280;25875;48.202;16.334;2023-08-07T01:30:59;98310.47;;;13.98;62.01
40155;BME280;25875;48.202;16.334;2023-08-07T01:33:33;98297.28;;;13.97;62.21
40155;BME280;25875;48.202;16.334;2023-08-07T01:36:03;98339.06;;;13.96;61.08
40155;BME280;25875;48.202;16.334;2023-08-07T01:38:34;98308.66;;;13.99;61.55
40155;BME280;25875;48.202;16.334;2023-08-07T01:41:02;98298.72;;;14.01;61.53
40155;BME280;25875;48.202;16.334;2023-08-07T01:43:30;98287.31;;;13.89;61.45
40155;BME280;25875;48.202;16.334;2023-08-07T01:45:57;98289.75;;;14.02;61.49
40155;BME280;25875;48.202;16.334;2023-08-07T01:48:25;98302.94;;;14.03;61.71
40155;BME280;25875;48.202;16.334;2023-08-07T01:50:53;98256.47;;;13.34;61.48
40155;BME280;25875;48.202;16.334;2023-08-07T01:53:20;98208.91;;;13.40;60.99
40155;BME280;25875;48.202;16.334;2023-08-07T01:55:48;98321.00;;;14.00;61.04
40155;BME280;25875;48.202;16.334;2023-08-07T01:58:15;98320.03;;;14.01;60.94
40155;BME280;25875;48.202;16.334;2023-08-07T02:00:46;98270.09;;;13.72;61.11
40155;BME280;25875;48.202;16.334;2023-08-07T02:03:12;98302.31;;;13.90;60.66
40155;BME280;25875;48.202;16.334;2023-08-07T02:05:39;98316.59;;;14.10;60.56
40155;BME280;25875;48.202;16.334;2023-08-07T02:08:09;98320.63;;;14.04;60.48
40155;BME280;25875;48.202;16.334;2023-08-07T02:10:36;98320.47;;;14.06;60.44
40155;BME280;25875;48.202;16.334;2023-08-07T02:13:04;98329.59;;;14.03;60.35
40155;BME280;25875;48.202;16.334;2023-08-07T02:15:30;98318.09;;;14.03;60.48
40155;BME280;25875;48.202;16.334;2023-08-07T02:17:57;98329.59;;;14.03;60.47
40155;BME280;25875;48.202;16.334;2023-08-07T02:20:24;98313.72;;;14.02;60.11
40155;BME280;25875;48.202;16.334;2023-08-07T02:22:51;98319.78;;;14.04;59.96
40155;BME280;25875;48.202;16.334;2023-08-07T02:25:18;98314.44;;;14.04;60.77
40155;BME280;25875;48.202;16.334;2023-08-07T02:27:44;98333.34;;;14.01;60.20
40155;BME280;25875;48.202;16.334;2023-08-07T02:30:13;98286.97;;;13.83;60.13
40155;BME280;25875;48.202;16.334;2023-08-07T02:32:40;98298.34;;;13.85;60.31
40155;BME280;25875;48.202;16.334;2023-08-07T02:35:10;98325.50;;;13.99;59.82
40155;BME280;25875;48.202;16.334;2023-08-07T02:37:37;98285.56;;;13.78;60.02
40155;BME280;25875;48.202;16.334;2023-08-07T02:40:05;98309.63;;;13.98;59.77
40155;BME280;25875;48.202;16.334;2023-08-07T02:42:32;98312.31;;;13.98;59.61
40155;BME280;25875;48.202;16.334;2023-08-07T02:44:58;98300.66;;;13.99;59.64
40155;BME280;25875;48.202;16.334;2023-08-07T02:47:26;98302.38;;;14.00;59.87
40155;BME280;25875;48.202;16.334;2023-08-07T02:49:53;98302.63;;;13.97;59.73
40155;BME280;25875;48.202;16.334;2023-08-07T02:52:20;98282.41;;;13.94;59.29
40155;BME280;25875;48.202;16.334;2023-08-07T02:54:46;98293.06;;;13.94;59.30
40155;BME280;25875;48.202;16.334;2023-08-07T02:57:13;98299.50;;;13.92;59.72
40155;BME280;25875;48.202;16.334;2023-08-07T02:59:40;98295.03;;;13.92;59.70
40155;BME280;25875;48.202;16.334;2023-08-07T03:02:07;98293.72;;;13.87;59.11
40155;BME280;25875;48.202;16.334;2023-08-07T03:04:35;98289.25;;;13.87;58.98
40155;BME280;25875;48.202;16.334;2023-08-07T03:07:02;98300.22;;;13.94;59.23
40155;BME280;25875;48.202;16.334;2023-08-07T03:09:28;98298.53;;;13.93;59.34
40155;BME280;25875;48.202;16.334;2023-08-07T03:11:55;98291.66;;;13.90;58.94
40155;BME280;25875;48.202;16.334;2023-08-07T03:14:22;98313.75;;;13.81;58.72
40155;BME280;25875;48.202;16.334;2023-08-07T03:16:48;98265.69;;;13.62;59.13
40155;BME280;25875;48.202;16.334;2023-08-07T03:19:15;98238.41;;;13.48;59.00
40155;BME280;25875;48.202;16.334;2023-08-07T03:21:48;98288.09;;;13.80;58.74
40155;BME280;25875;48.202;16.334;2023-08-07T03:24:15;98277.81;;;13.75;59.13
40155;BME280;25875;48.202;16.334;2023-08-07T03:26:41;98214.69;;;13.25;58.69
40155;BME280;25875;48.202;16.334;2023-08-07T03:29:09;98303.59;;;13.75;59.09
40155;BME280;25875;48.202;16.334;2023-08-07T03:31:36;98218.13;;;13.36;58.97
40155;BME280;25875;48.202;16.334;2023-08-07T03:34:03;98292.50;;;13.70;59.11
40155;BME280;25875;48.202;16.334;2023-08-07T03:36:29;98296.13;;;13.69;59.68
40155;BME280;25875;48.202;16.334;2023-08-07T03:38:58;98293.22;;;13.72;59.12
40155;BME280;25875;48.202;16.334;2023-08-07T03:41:25;98075.41;;;12.31;59.41
40155;BME280;25875;48.202;16.334;2023-08-07T03:43:53;98307.31;;;13.63;59.39
40155;BME280;25875;48.202;16.334;2023-08-07T03:46:20;98254.78;;;13.33;59.41
40155;BME280;25875;48.202;16.334;2023-08-07T03:48:47;98318.81;;;13.63;59.33
40155;BME280;25875;48.202;16.334;2023-08-07T03:51:14;98288.53;;;13.64;59.62
40155;BME280;25875;48.202;16.334;2023-08-07T03:53:42;98323.88;;;13.66;59.54
40155;BME280;25875;48.202;16.334;2023-08-07T03:56:10;98233.44;;;13.23;59.61
40155;BME280;25875;48.202;16.334;2023-08-07T03:58:37;98256.59;;;13.43;59.65
40155;BME280;25875;48.202;16.334;2023-08-07T04:01:03;98302.81;;;13.63;59.86
40155;BME280;25875;48.202;16.334;2023-08-07T04:03:30;98284.19;;;13.63;59.82
40155;BME280;25875;48.202;16.334;2023-08-07T04:05:57;98283.47;;;13.61;59.84
40155;BME280;25875;48.202;16.334;2023-08-07T04:08:25;98290.88;;;13.58;60.09
40155;BME280;25875;48.202;16.334;2023-08-07T04:11:00;98290.03;;;13.57;60.03
40155;BME280;25875;48.202;16.334;2023-08-07T04:13:29;98249.47;;;13.33;60.04
40155;BME280;25875;48.202;16.334;2023-08-07T04:15:56;98290.16;;;13.56;59.86
40155;BME280;25875;48.202;16.334;2023-08-07T04:18:23;98281.34;;;13.55;60.04
40155;BME280;25875;48.202;16.334;2023-08-07T04:20:52;98279.91;;;13.51;60.43
40155;BME280;25875;48.202;16.334;2023-08-07T04:23:19;98298.41;;;13.53;60.21
40155;BME280;25875;48.202;16.334;2023-08-07T04:25:47;98280.03;;;13.50;60.63
40155;BME280;25875;48.202;16.334;2023-08-07T04:28:14;98287.16;;;13.49;60.51
40155;BME280;25875;48.202;16.334;2023-08-07T04:30:43;98304.25;;;13.46;60.84
40155;BME280;25875;48.202;16.334;2023-08-07T04:33:10;98267.94;;;13.45;61.06
40155;BME280;25875;48.202;16.334;2023-08-07T04:35:36;98225.91;;;13.28;61.12
40155;BME280;25875;48.202;16.334;2023-08-07T04:38:03;98266.97;;;13.46;61.23
40155;BME280;25875;48.202;16.334;2023-08-07T04:40:30;98252.25;;;13.42;61.38
40155;BME280;25875;48.202;16.334;2023-08-07T04:42:57;98272.91;;;13.39;61.16
40155;BME280;25875;48.202;16.334;2023-08-07T04:45:24;98259.59;;;13.39;61.72
40155;BME280;25875;48.202;16.334;2023-08-07T04:47:52;98260.56;;;13.38;61.49
40155;BME280;25875;48.202;16.334;2023-08-07T04:50:19;98259.03;;;13.35;62.10
40155;BME280;25875;48.202;16.334;2023-08-07T04:52:45;98276.81;;;13.35;61.75
40155;BME280;25875;48.202;16.334;2023-08-07T04:55:12;98278.75;;;13.33;61.79
40155;BME280;25875;48.202;16.334;2023-08-07T04:57:39;98270.75;;;13.33;61.92
40155;BME280;25875;48.202;16.334;2023-08-07T05:00:07;98278.88;;;13.31;61.62
40155;BME280;25875;48.202;16.334;2023-08-07T05:02:34;98237.72;;;13.14;61.37
40155;BME280;25875;48.202;16.334;2023-08-07T05:05:03;98231.94;;;13.09;61.02
40155;BME280;25875;48.202;16.334;2023-08-07T05:07:32;98300.03;;;13.33;61.35
40155;BME280;25875;48.202;16.334;2023-08-07T05:09:59;98270.75;;;13.33;61.30
40155;BME280;25875;48.202;16.334;2023-08-07T05:12:26;98282.38;;;13.32;60.72
40155;BME280;25875;48.202;16.334;2023-08-07T05:14:53;98278.50;;;13.36;60.24
40155;BME280;25875;48.202;16.334;2023-08-07T05:17:19;98279.97;;;13.29;60.31
40155;BME280;25875;48.202;16.334;2023-08-07T05:19:46;98280.56;;;13.32;59.99
40155;BME280;25875;48.202;16.334;2023-08-07T05:22:15;98252.25;;;13.10;60.04
40155;BME280;25875;48.202;16.334;2023-08-07T05:24:42;98290.50;;;13.30;59.57
40155;BME280;25875;48.202;16.334;2023-08-07T05:27:11;98278.28;;;13.28;59.92
40155;BME280;25875;48.202;16.334;2023-08-07T05:29:38;98323.97;;;13.33;59.61
40155;BME280;25875;48.202;16.334;2023-08-07T05:32:09;98322.81;;;13.26;59.46
40155;BME280;25875;48.202;16.334;2023-08-07T05:34:36;98326.56;;;13.23;59.59
40155;BME280;25875;48.202;16.334;2023-08-07T05:37:04;98314.81;;;13.26;59.64
40155;BME280;25875;48.202;16.334;2023-08-07T05:39:32;98310.81;;;13.31;59.48
40155;BME280;25875;48.202;16.334;2023-08-07T05:41:59;98325.09;;;13.30;59.50
40155;BME280;25875;48.202;16.334;2023-08-07T05:44:27;98343.34;;;13.35;59.60
40155;BME280;25875;48.202;16.334;2023-08-07T05:46:54;98338.38;;;13.30;59.16
40155;BME280;25875;48.202;16.334;2023-08-07T05:49:21;98380.50;;;13.25;59.24
40155;BME280;25875;48.202;16.334;2023-08-07T05:51:47;98353.16;;;13.23;58.81
40155;BME280;25875;48.202;16.334;2023-08-07T05:54:15;98343.38;;;13.24;58.85
40155;BME280;25875;48.202;16.334;2023-08-07T05:56:43;98352.19;;;13.24;59.20
40155;BME280;25875;48.202;16.334;2023-08-07T05:59:10;98365.63;;;13.23;59.63
40155;BME280;25875;48.202;16.334;2023-08-07T06:01:37;98375.53;;;13.21;59.69
40155;BME280;25875;48.202;16.334;2023-08-07T06:04:04;98375.06;;;13.15;60.03
40155;BME280;25875;48.202;16.334;2023-08-07T06:06:30;98376.75;;;13.16;60.27
40155;BME280;25875;48.202;16.334;2023-08-07T06:09:00;98405.69;;;13.10;60.67
40155;BME280;25875;48.202;16.334;2023-08-07T06:11:27;98347.69;;;12.93;60.65
40155;BME280;25875;48.202;16.334;2023-08-07T06:13:55;98391.53;;;13.09;60.74
40155;BME280;25875;48.202;16.334;2023-08-07T06:16:22;98385.13;;;13.12;60.78
40155;BME280;25875;48.202;16.334;2023-08-07T06:18:48;98342.13;;;12.84;60.49
40155;BME280;25875;48.202;16.334;2023-08-07T06:21:15;98362.16;;;13.00;59.69
40155;BME280;25875;48.202;16.334;2023-08-07T06:23:42;98352.13;;;13.03;60.27
40155;BME280;25875;48.202;16.334;2023-08-07T06:26:09;98348.50;;;13.04;59.79
40155;BME280;25875;48.202;16.334;2023-08-07T06:28:35;98303.50;;;12.58;59.46
40155;BME280;25875;48.202;16.334;2023-08-07T06:31:05;98334.47;;;13.02;59.35
40155;BME280;25875;48.202;16.334;2023-08-07T06:33:32;98330.72;;;13.05;59.01
40155;BME280;25875;48.202;16.334;2023-08-07T06:36:00;98345.22;;;13.12;58.81
40155;BME280;25875;48.202;16.334;2023-08-07T06:38:27;98307.53;;;12.96;58.45
40155;BME280;25875;48.202;16.334;2023-08-07T06:40:53;98322.00;;;13.14;57.86
40155;BME280;25875;48.202;16.334;2023-08-07T06:43:20;98317.50;;;13.14;57.56
40155;BME280;25875;48.202;16.334;2023-08-07T06:45:48;98317.38;;;13.16;57.71
40155;BME280;25875;48.202;16.334;2023-08-07T06:48:17;98322.34;;;13.21;57.57
40155;BME280;25875;48.202;16.334;2023-08-07T06:50:44;98320.00;;;13.27;57.15
40155;BME280;25875;48.202;16.334;2023-08-07T06:53:13;98353.53;;;13.19;57.01
40155;BME280;25875;48.202;16.334;2023-08-07T06:55:40;98359.84;;;13.18;56.92
40155;BME280;25875;48.202;16.334;2023-08-07T06:58:07;98325.38;;;13.16;57.32
40155;BME280;25875;48.202;16.334;2023-08-07T07:00:34;98310.97;;;13.19;57.34
40155;BME280;25875;48.202;16.334;2023-08-07T07:03:02;98385.25;;;13.10;56.77
40155;BME280;25875;48.202;16.334;2023-08-07T07:05:30;98330.34;;;13.09;57.11
40155;BME280;25875;48.202;16.334;2023-08-07T07:07:58;98353.44;;;13.09;57.32
40155;BME280;25875;48.202;16.334;2023-08-07T07:10:25;98344.63;;;13.08;57.55
40155;BME280;25875;48.202;16.334;2023-08-07T07:12:52;98346.31;;;13.09;57.40
40155;BME280;25875;48.202;16.334;2023-08-07T07:15:18;98375.69;;;13.08;57.86
40155;BME280;25875;48.202;16.334;2023-08-07T07:17:45;98319.28;;;12.82;57.88
40155;BME280;25875;48.202;16.334;2023-08-07T07:20:12;98375.22;;;13.03;57.69
40155;BME280;25875;48.202;16.334;2023-08-07T07:22:40;98347.53;;;13.05;58.27
